Time;durP1;ratioP1;P1;durP2;ratioP2;P2;SDS_P1;SDS_P2;PMS_P1;PMS_P2;Temp;Humidity;BMP_temperature;BMP_pressure;BME280_temperature;BME280_humidity;BME280_pressure;Samples;Min_cycle;Max_cycle;Signal;HPM_P1;HPM_P2
2022/08/28 00:02:05;;;;;;;;;;;;;;;16.39;98.68;102100.47;5114758;28;19932;-38
2022/08/28 00:04:33;;;;;;;;;;;;;;;16.37;98.48;102103.63;5114368;28;19927;-41
2022/08/28 00:07:01;;;;;;;;;;;;;;;16.34;98.52;102109.03;5114505;28;19946;-31
2022/08/28 00:09:29;;;;;;;;;;;;;;;16.33;98.28;102101.72;5114745;28;19923;-32
2022/08/28 00:11:57;;;;;;;;;;;;;;;16.30;98.36;102100.34;5114549;28;19924;-32
2022/08/28 00:14:25;;;;;;;;;;;;;;;16.30;98.36;102096.69;5114373;28;19923;-35
2022/08/28 00:16:53;;;;;;;;;;;;;;;16.27;98.39;102106.59;5114211;28;19927;-32
2022/08/28 00:19:22;;;;;;;;;;;;;;;16.25;98.47;102100.44;5103245;28;19928;-37
2022/08/28 00:21:50;;;;;;;;;;;;;;;16.25;98.73;102108.03;5114119;28;20402;-33
2022/08/28 00:24:18;;;;;;;;;;;;;;;16.23;98.60;102099.06;5113813;28;19931;-32
2022/08/28 00:29:32;;;;;;;;;;;;;;;16.18;99.08;102100.84;5113007;28;19928;-33
2022/08/28 00:32:00;;;;;;;;;;;;;;;16.18;99.08;102108.44;5102702;28;19931;-36
2022/08/28 00:34:28;;;;;;;;;;;;;;;16.15;99.41;102106.25;5111010;28;19946;-34
2022/08/28 00:37:00;;;;;;;;;;;;;;;16.13;99.56;102100.06;5114289;28;19928;-33
2022/08/28 00:39:27;;;;;;;;;;;;;;;16.10;99.63;102095.88;5112546;28;19931;-34
2022/08/28 00:41:57;;;;;;;;;;;;;;;16.07;99.81;102099.31;5114233;28;19930;-32
2022/08/28 00:44:26;;;;;;;;;;;;;;;16.04;99.89;102094.28;5113847;28;19928;-39
2022/08/28 00:46:54;;;;;;;;;;;;;;;16.02;100.00;102101.38;5112288;28;20289;-33
2022/08/28 00:49:23;;;;;;;;;;;;;;;16.00;100.00;102092.38;5113523;28;19934;-39
2022/08/28 00:52:11;;;;;;;;;;;;;;;15.98;100.00;102089.91;5112962;28;19930;-38
2022/08/28 00:54:40;;;;;;;;;;;;;;;15.97;100.00;102095.84;5114023;28;20057;-37
2022/08/28 00:57:20;;;;;;;;;;;;;;;15.95;99.98;102095.31;5112844;28;19930;-41
2022/08/28 00:59:53;;;;;;;;;;;;;;;15.93;100.00;102094.78;5113013;28;19924;-36
2022/08/28 01:02:21;;;;;;;;;;;;;;;15.91;100.00;102095.06;5113899;28;19927;-33
2022/08/28 01:04:49;;;;;;;;;;;;;;;15.91;100.00;102103.50;5113531;28;19928;-33
2022/08/28 01:07:17;;;;;;;;;;;;;;;15.88;100.00;102101.31;5111098;28;19924;-39
2022/08/28 01:09:47;;;;;;;;;;;;;;;15.87;100.00;102105.25;5113086;28;20406;-33
2022/08/28 01:12:17;;;;;;;;;;;;;;;15.86;100.00;102100.78;5113355;28;19947;-42
2022/08/28 01:14:48;;;;;;;;;;;;;;;15.84;100.00;102101.06;5106238;28;19924;-36
2022/08/28 01:17:18;;;;;;;;;;;;;;;15.83;100.00;102099.41;5113409;28;19950;-41
2022/08/28 01:19:47;;;;;;;;;;;;;;;15.83;100.00;102101.38;5113282;28;19939;-39
2022/08/28 01:22:20;;;;;;;;;;;;;;;15.81;100.00;102098.03;5112890;28;19924;-41
2022/08/28 01:24:49;;;;;;;;;;;;;;;15.81;100.00;102100.84;5113049;28;19924;-38
2022/08/28 01:27:17;;;;;;;;;;;;;;;15.80;100.00;102099.16;5112710;28;19923;-35
2022/08/28 01:29:45;;;;;;;;;;;;;;;15.78;100.00;102102.31;5113220;28;19931;-34
2022/08/28 01:32:25;;;;;;;;;;;;;;;15.76;100.00;102096.16;5112910;28;20441;-34
2022/08/28 01:34:53;;;;;;;;;;;;;;;15.74;100.00;102094.78;5112635;28;19924;-38
2022/08/28 01:37:20;;;;;;;;;;;;;;;15.72;100.00;102102.69;5113052;28;19930;-39
2022/08/28 01:39:50;;;;;;;;;;;;;;;15.69;100.00;102098.50;5112707;28;19947;-31
2022/08/28 01:42:17;;;;;;;;;;;;;;;15.67;100.00;102099.94;5113053;28;19924;-32
2022/08/28 01:44:46;;;;;;;;;;;;;;;15.64;100.00;102097.72;5112898;28;19931;-37
2022/08/28 01:47:13;;;;;;;;;;;;;;;15.62;100.00;102097.19;5112744;28;19928;-38
2022/08/28 01:49:41;;;;;;;;;;;;;;;15.60;100.00;102093.84;5112313;28;19931;-32
2022/08/28 01:52:09;;;;;;;;;;;;;;;15.58;100.00;102096.13;5112459;28;19924;-38
2022/08/28 01:54:38;;;;;;;;;;;;;;;15.56;100.00;102104.03;5112749;28;19924;-32
2022/08/28 01:57:08;;;;;;;;;;;;;;;15.52;100.00;102093.34;5112100;28;19934;-32
2022/08/28 01:59:36;;;;;;;;;;;;;;;15.51;100.00;102090.84;5112670;28;19931;-36
2022/08/28 02:02:04;;;;;;;;;;;;;;;15.51;100.00;102093.66;5112094;28;20000;-32
2022/08/28 02:04:32;;;;;;;;;;;;;;;15.49;100.00;102087.50;5111052;28;19977;-32
2022/08/28 02:07:00;;;;;;;;;;;;;;;15.48;100.00;102091.44;5112394;28;19928;-32
2022/08/28 02:09:27;;;;;;;;;;;;;;;15.46;100.00;102097.38;5111944;28;20447;-35
2022/08/28 02:11:56;;;;;;;;;;;;;;;15.45;100.00;102100.47;5112530;28;20486;-39
2022/08/28 02:14:25;;;;;;;;;;;;;;;15.43;100.00;102095.16;5112290;28;19931;-39
2022/08/28 02:16:52;;;;;;;;;;;;;;;15.41;100.00;102096.59;5111900;28;19935;-38
2022/08/28 02:19:21;;;;;;;;;;;;;;;15.38;100.00;102098.06;5112589;28;20022;-34
2022/08/28 02:21:48;;;;;;;;;;;;;;;15.32;100.00;102088.00;5112289;28;19958;-30
2022/08/28 02:24:16;;;;;;;;;;;;;;;15.31;100.00;102094.78;5112211;28;19924;-34
2022/08/28 02:26:44;;;;;;;;;;;;;;;15.28;100.00;102094.53;5112155;28;19930;-43
2022/08/28 02:29:12;;;;;;;;;;;;;;;15.25;100.00;102095.97;5112294;28;19924;-44
2022/08/28 02:31:41;;;;;;;;;;;;;;;15.24;100.00;102096.25;5111390;28;19928;-36
2022/08/28 02:34:10;;;;;;;;;;;;;;;15.22;100.00;102098.53;5112426;28;19924;-33
2022/08/28 02:36:39;;;;;;;;;;;;;;;15.19;100.00;102104.78;5112116;28;20460;-37
2022/08/28 02:39:07;;;;;;;;;;;;;;;15.16;100.00;102107.06;5111814;28;19938;-37
2022/08/28 02:41:34;;;;;;;;;;;;;;;15.15;100.00;102111.00;5111966;28;20380;-40
2022/08/28 02:44:02;;;;;;;;;;;;;;;15.15;100.00;102101.72;5112157;28;19942;-39
2022/08/28 02:46:30;;;;;;;;;;;;;;;15.13;100.00;102107.66;5100827;28;19924;-35
2022/08/28 02:48:59;;;;;;;;;;;;;;;15.11;100.00;102104.28;5111814;28;20376;-33
2022/08/28 02:51:30;;;;;;;;;;;;;;;15.11;100.00;102112.72;5111863;28;19935;-39
2022/08/28 02:53:57;;;;;;;;;;;;;;;15.10;100.00;102107.41;5111312;28;19935;-34
2022/08/28 02:56:25;;;;;;;;;;;;;;;15.08;100.00;102106.88;5112045;28;19930;-41
2022/08/28 02:58:52;;;;;;;;;;;;;;;15.06;100.00;102107.16;5111745;28;19924;-36
2022/08/28 03:01:23;;;;;;;;;;;;;;;15.06;100.00;102111.94;5111332;28;20270;-32
2022/08/28 03:03:50;;;;;;;;;;;;;;;15.04;100.00;102114.22;5112019;28;19946;-32
2022/08/28 03:06:19;;;;;;;;;;;;;;;15.02;100.00;102114.50;5111549;28;20231;-35
2022/08/28 03:08:47;;;;;;;;;;;;;;;15.02;100.00;102110.84;5111824;28;19929;-33
2022/08/28 03:11:15;;;;;;;;;;;;;;;15.00;100.00;102115.94;5111822;28;20036;-33
2022/08/28 03:13:43;;;;;;;;;;;;;;;14.99;100.00;102111.44;5111561;28;19924;-40
2022/08/28 03:16:10;;;;;;;;;;;;;;;14.96;100.00;102112.06;5113653;28;19923;-37
2022/08/28 03:18:38;;;;;;;;;;;;;;;14.92;100.00;102106.22;5115670;28;20274;-34
2022/08/28 03:21:06;;;;;;;;;;;;;;;14.91;100.00;102107.34;5115495;28;19930;-34
2022/08/28 03:23:35;;;;;;;;;;;;;;;14.90;100.00;102113.25;5115370;28;20266;-34
2022/08/28 03:26:04;;;;;;;;;;;;;;;14.90;100.00;102113.25;5115702;28;19923;-33
2022/08/28 03:28:33;;;;;;;;;;;;;;;14.88;100.00;102116.38;5114946;28;19924;-34
2022/08/28 03:31:01;;;;;;;;;;;;;;;14.87;100.00;102120.31;5096976;28;20045;-33
2022/08/28 03:33:28;;;;;;;;;;;;;;;14.85;100.00;102116.94;5114762;28;19924;-39
2022/08/28 03:35:56;;;;;;;;;;;;;;;14.83;100.00;102117.25;5104252;28;19923;-35
2022/08/28 03:38:24;;;;;;;;;;;;;;;14.81;100.00;102116.72;5115382;28;20039;-32
2022/08/28 03:40:54;;;;;;;;;;;;;;;14.81;100.00;102115.88;5114927;28;19924;-33
2022/08/28 03:43:23;;;;;;;;;;;;;;;14.80;100.00;102115.03;5104111;28;20288;-32
2022/08/28 03:45:56;;;;;;;;;;;;;;;14.80;100.00;102115.03;5111521;28;20011;-35
2022/08/28 03:48:25;;;;;;;;;;;;;;;14.81;100.00;102125.13;5114530;28;19967;-39
2022/08/28 03:50:53;;;;;;;;;;;;;;;14.82;100.00;102128.78;5114841;28;19924;-35
2022/08/28 03:53:22;;;;;;;;;;;;;;;14.81;100.00;102127.09;5115414;28;19924;-32
2022/08/28 03:55:49;;;;;;;;;;;;;;;14.80;100.00;102128.25;5114528;28;19924;-34
2022/08/28 03:58:19;;;;;;;;;;;;;;;14.79;100.00;102130.22;5113726;28;19924;-32
2022/08/28 04:00:46;;;;;;;;;;;;;;;14.80;100.00;102131.88;5114941;28;20273;-38
2022/08/28 04:03:14;;;;;;;;;;;;;;;14.78;100.00;102131.38;5114451;28;19932;-32
2022/08/28 04:05:42;;;;;;;;;;;;;;;14.77;100.00;102128.88;5114794;28;19967;-32
2022/08/28 04:08:11;;;;;;;;;;;;;;;14.78;100.00;102133.34;5114618;28;19924;-36
2022/08/28 04:10:39;;;;;;;;;;;;;;;14.77;100.00;102132.50;5113875;28;19923;-39
2022/08/28 04:13:07;;;;;;;;;;;;;;;14.76;100.00;102130.00;5114015;28;19923;-33
2022/08/28 04:15:35;;;;;;;;;;;;;;;14.74;100.00;102133.09;5113942;28;19928;-38
2022/08/28 04:18:03;;;;;;;;;;;;;;;14.73;100.00;102131.41;5113808;28;20292;-33
2022/08/28 04:20:31;;;;;;;;;;;;;;;14.73;100.00;102134.22;5095819;28;19924;-35
2022/08/28 04:22:58;;;;;;;;;;;;;;;14.71;100.00;102133.69;5113483;28;19935;-33
2022/08/28 04:25:26;;;;;;;;;;;;;;;14.70;100.00;102137.63;5113956;28;19963;-37
2022/08/28 04:27:54;;;;;;;;;;;;;;;14.67;100.00;102145.81;5094724;28;19935;-36
2022/08/28 04:30:22;;;;;;;;;;;;;;;14.66;100.00;102147.78;5112984;28;20345;-33
2022/08/28 04:32:50;;;;;;;;;;;;;;;14.64;100.00;102150.03;5102646;28;19928;-33
2022/08/28 04:35:18;;;;;;;;;;;;;;;14.63;100.00;102151.16;5113561;28;19935;-38
2022/08/28 04:37:46;;;;;;;;;;;;;;;14.64;100.00;102150.03;5111890;28;19935;-32
2022/08/28 04:40:14;;;;;;;;;;;;;;;14.68;100.00;102155.91;5110748;28;19924;-37
2022/08/28 04:42:43;;;;;;;;;;;;;;;14.70;100.00;102148.88;5109207;28;19955;-34
2022/08/28 04:45:12;;;;;;;;;;;;;;;14.72;100.00;102148.56;5112478;28;19931;-35
2022/08/28 04:47:40;;;;;;;;;;;;;;;14.75;100.00;102154.44;5112178;28;20024;-34
2022/08/28 04:50:10;;;;;;;;;;;;;;;14.79;100.00;102154.66;5094431;28;19960;-38
2022/08/28 04:52:38;;;;;;;;;;;;;;;14.81;100.00;102167.28;5112177;28;19924;-35
2022/08/28 04:55:06;;;;;;;;;;;;;;;14.82;100.00;102168.13;5112786;28;19924;-37
2022/08/28 04:57:34;;;;;;;;;;;;;;;14.82;100.00;102173.75;5094937;28;20036;-37
2022/08/28 05:00:04;;;;;;;;;;;;;;;14.82;100.00;102162.50;5110722;28;19924;-32
2022/08/28 05:02:31;;;;;;;;;;;;;;;14.82;100.00;102174.59;5112118;28;19927;-32
2022/08/28 05:04:59;;;;;;;;;;;;;;;14.85;100.00;102178.78;5111852;28;19927;-38
2022/08/28 05:07:28;;;;;;;;;;;;;;;14.90;100.00;102186.34;5111921;28;19924;-42
2022/08/28 05:09:56;;;;;;;;;;;;;;;14.95;100.00;102175.03;5111688;28;20242;-39
2022/08/28 05:12:24;;;;;;;;;;;;;;;15.01;100.00;102176.66;5111978;28;19935;-39
2022/08/28 05:14:51;;;;;;;;;;;;;;;15.05;100.00;102180.56;5112369;28;19927;-35
2022/08/28 05:17:19;;;;;;;;;;;;;;;15.06;100.00;102177.44;5112177;28;19932;-36
2022/08/28 05:19:47;;;;;;;;;;;;;;;15.09;100.00;102176.00;5111681;28;19931;-34
2022/08/28 05:22:15;;;;;;;;;;;;;;;15.10;100.00;102178.53;5111893;28;19995;-38
2022/08/28 05:24:44;;;;;;;;;;;;;;;15.10;100.00;102172.06;5111622;28;19942;-33
2022/08/28 05:27:11;;;;;;;;;;;;;;;15.13;100.00;102174.28;5111412;28;19931;-39
2022/08/28 05:29:39;;;;;;;;;;;;;;;15.15;100.00;102177.66;5111404;28;20288;-33
2022/08/28 05:32:06;;;;;;;;;;;;;;;15.19;100.00;102175.09;5093053;28;20320;-40
2022/08/28 05:34:34;;;;;;;;;;;;;;;15.23;100.00;102170.50;5111680;28;20303;-35
2022/08/28 05:37:02;;;;;;;;;;;;;;;15.24;100.00;102175.00;5111478;28;19924;-33
2022/08/28 05:39:29;;;;;;;;;;;;;;;15.24;100.00;102175.84;5111981;28;20233;-33
2022/08/28 05:41:58;;;;;;;;;;;;;;;15.27;100.00;102174.41;5111606;28;19935;-33
2022/08/28 05:44:26;;;;;;;;;;;;;;;15.28;100.00;102174.09;5111403;28;19924;-40
2022/08/28 05:46:54;;;;;;;;;;;;;;;15.31;100.00;102179.16;5110830;28;19923;-33
2022/08/28 05:49:22;;;;;;;;;;;;;;;15.34;100.00;102174.91;5110996;28;19934;-33
2022/08/28 05:51:51;;;;;;;;;;;;;;;15.36;100.00;102179.09;5111585;28;19931;-37
2022/08/28 05:54:18;;;;;;;;;;;;;;;15.39;100.00;102174.81;5111465;28;19928;-33
2022/08/28 05:56:46;;;;;;;;;;;;;;;15.41;100.00;102181.81;5112114;28;19924;-33
2022/08/28 05:59:15;;;;;;;;;;;;;;;15.42;100.00;102183.50;5105179;28;19966;-32
2022/08/28 06:01:44;;;;;;;;;;;;;;;15.45;100.00;102179.25;5111172;28;19930;-38
2022/08/28 06:04:13;;;;;;;;;;;;;;;15.51;100.00;102183.69;5111916;28;19935;-36
2022/08/28 06:06:41;;;;;;;;;;;;;;;15.57;100.00;102184.50;5111586;28;19928;-40
2022/08/28 06:09:10;;;;;;;;;;;;;;;15.61;100.00;102183.56;5111790;28;20441;-38
2022/08/28 06:11:38;;;;;;;;;;;;;;;15.65;100.00;102187.47;5111491;28;20406;-42
2022/08/28 06:14:13;;;;;;;;;;;;;;;15.70;100.00;102192.19;5111934;28;20031;-37
2022/08/28 06:16:45;;;;;;;;;;;;;;;15.74;100.00;102193.28;5111017;28;19946;-42
2022/08/28 06:19:13;;;;;;;;;;;;;;;15.78;100.00;102189.56;5091331;28;20407;-33
2022/08/28 06:21:41;;;;;;;;;;;;;;;15.84;100.00;102190.31;5110860;28;19939;-33
2022/08/28 06:24:09;;;;;;;;;;;;;;;15.90;100.00;102194.75;5111313;28;19924;-40
2022/08/28 06:26:37;;;;;;;;;;;;;;;15.97;100.00;102185.94;5082005;28;20373;-40
2022/08/28 06:29:06;;;;;;;;;;;;;;;16.03;100.00;102196.78;5111495;28;20038;-34
2022/08/28 06:31:34;;;;;;;;;;;;;;;16.09;100.00;102192.78;5111003;28;19924;-40
2022/08/28 06:34:03;;;;;;;;;;;;;;;16.18;100.00;102190.97;5110995;28;19924;-39
2022/08/28 06:36:32;;;;;;;;;;;;;;;16.26;100.00;102188.56;5110817;28;19928;-36
2022/08/28 06:39:01;;;;;;;;;;;;;;;16.34;100.00;102199.16;5111577;28;19927;-39
2022/08/28 06:41:30;;;;;;;;;;;;;;;16.42;100.00;102198.47;5110227;28;19924;-34
2022/08/28 06:43:58;;;;;;;;;;;;;;;16.53;100.00;102197.16;5107677;28;19931;-34
2022/08/28 06:46:29;;;;;;;;;;;;;;;16.65;100.00;102199.53;5111210;28;19927;-38
2022/08/28 06:48:56;;;;;;;;;;;;;;;16.79;100.00;102204.06;5111086;28;19969;-34
2022/08/28 06:51:25;;;;;;;;;;;;;;;16.96;100.00;102202.66;5113075;28;20037;-45
2022/08/28 06:53:53;;;;;;;;;;;;;;;17.15;100.00;102204.28;5115196;28;19928;-38
2022/08/28 06:56:21;;;;;;;;;;;;;;;17.44;100.00;102200.31;5115346;28;20260;-37
2022/08/28 06:58:54;;;;;;;;;;;;;;;17.92;100.00;102199.91;5114633;28;19928;-39
2022/08/28 07:01:23;;;;;;;;;;;;;;;18.57;100.00;102194.69;5114707;28;20368;-33
2022/08/28 07:03:51;;;;;;;;;;;;;;;19.32;100.00;102202.34;5115316;28;19938;-34
2022/08/28 07:06:20;;;;;;;;;;;;;;;20.02;97.50;102204.25;5114367;28;19928;-38
2022/08/28 07:08:49;;;;;;;;;;;;;;;20.69;93.25;102206.66;5114893;28;19924;-38
2022/08/28 07:11:19;;;;;;;;;;;;;;;21.32;88.40;102199.34;5115177;28;19924;-33
2022/08/28 07:13:47;;;;;;;;;;;;;;;21.98;83.12;102205.38;5114663;28;19924;-37
2022/08/28 07:16:16;;;;;;;;;;;;;;;22.58;78.61;102202.06;5114375;28;20285;-40
2022/08/28 07:18:45;;;;;;;;;;;;;;;23.19;74.65;102204.31;5114436;28;19969;-36
2022/08/28 07:21:13;;;;;;;;;;;;;;;23.70;69.41;102203.72;5114597;28;19924;-41
2022/08/28 07:23:42;;;;;;;;;;;;;;;24.15;66.67;102211.28;5114887;28;19932;-41
2022/08/28 07:26:13;;;;;;;;;;;;;;;24.56;63.99;102201.59;5114379;28;19924;-40
2022/08/28 07:28:40;;;;;;;;;;;;;;;24.96;61.38;102210.13;5114781;28;19932;-41
2022/08/28 07:31:09;;;;;;;;;;;;;;;25.19;57.24;102212.34;5114699;28;19939;-32
2022/08/28 07:33:38;;;;;;;;;;;;;;;25.00;57.14;102225.31;5113743;28;20368;-39
2022/08/28 07:36:06;;;;;;;;;;;;;;;24.83;57.13;102224.78;5114223;28;19931;-35
2022/08/28 07:38:42;;;;;;;;;;;;;;;24.86;58.31;102235.47;5112343;28;19981;-32
2022/08/28 07:41:15;;;;;;;;;;;;;;;25.11;57.96;102233.38;5113901;28;19977;-37
2022/08/28 07:46:24;;;;;;;;;;;;;;;25.64;53.89;102238.50;5080719;28;19930;-38
2022/08/28 07:48:52;;;;;;;;;;;;;;;25.38;53.83;102238.19;5112127;28;19930;-36
2022/08/28 07:51:20;;;;;;;;;;;;;;;25.26;55.91;102238.28;5113666;28;19924;-34
2022/08/28 07:53:47;;;;;;;;;;;;;;;25.49;56.16;102239.31;5113595;28;20269;-34
2022/08/28 07:56:16;;;;;;;;;;;;;;;25.92;54.17;102234.72;5114076;28;20296;-38
2022/08/28 07:58:44;;;;;;;;;;;;;;;26.29;52.70;102230.34;5113838;28;20278;-41
2022/08/28 08:01:11;;;;;;;;;;;;;;;26.72;51.56;102246.44;5112374;28;20299;-37
2022/08/28 08:03:39;;;;;;;;;;;;;;;27.14;49.61;102239.13;5113606;28;19928;-35
2022/08/28 08:06:07;;;;;;;;;;;;;;;27.41;49.05;102240.88;5113413;28;19967;-34
2022/08/28 08:08:35;;;;;;;;;;;;;;;27.41;47.68;102238.81;5111773;28;19923;-39
2022/08/28 08:11:04;;;;;;;;;;;;;;;27.34;48.15;102237.88;5112800;28;19924;-39
2022/08/28 08:13:34;;;;;;;;;;;;;;;27.40;47.99;102234.28;5112969;28;19928;-34
2022/08/28 08:16:02;;;;;;;;;;;;;;;27.53;44.75;102240.69;5112903;28;19938;-33
2022/08/28 08:18:30;;;;;;;;;;;;;;;27.73;46.09;102247.22;5113158;28;19985;-38
2022/08/28 08:20:58;;;;;;;;;;;;;;;27.97;45.47;102243.94;5112804;28;19931;-37
2022/08/28 08:23:25;;;;;;;;;;;;;;;28.10;44.32;102256.84;5112619;28;19967;-33
2022/08/28 08:25:54;;;;;;;;;;;;;;;28.21;45.04;102259.09;5112998;28;19979;-34
2022/08/28 08:28:22;;;;;;;;;;;;;;;28.22;43.75;102258.69;5113333;28;19935;-37
2022/08/28 08:30:51;;;;;;;;;;;;;;;28.18;43.82;102254.09;5112241;28;20381;-33
2022/08/28 08:33:19;;;;;;;;;;;;;;;28.24;43.95;102259.16;5112684;28;20381;-37
2022/08/28 08:35:46;;;;;;;;;;;;;;;28.46;43.56;102252.50;5112979;28;19927;-41
2022/08/28 08:38:14;;;;;;;;;;;;;;;28.56;43.66;102258.81;5112589;28;19931;-38
2022/08/28 08:40:41;;;;;;;;;;;;;;;28.82;44.79;102255.06;5112333;28;19947;-40
2022/08/28 08:43:09;;;;;;;;;;;;;;;29.31;42.59;102257.69;5112665;28;19923;-38
2022/08/28 08:45:38;;;;;;;;;;;;;;;29.76;40.07;102254.50;5113081;28;19939;-41
2022/08/28 08:48:21;;;;;;;;;;;;;;;29.88;39.10;102256.22;5112806;28;19923;-37
2022/08/28 08:50:49;;;;;;;;;;;;;;;29.64;40.05;102251.91;5110950;28;20296;-43
2022/08/28 08:53:23;;;;;;;;;;;;;;;29.36;40.85;102248.72;5108981;28;20388;-36
2022/08/28 08:55:52;;;;;;;;;;;;;;;28.97;40.87;102252.00;5112681;28;19928;-35
2022/08/28 08:58:24;;;;;;;;;;;;;;;28.59;41.49;102252.25;5112112;28;19931;-34
2022/08/28 09:00:58;;;;;;;;;;;;;;;28.23;42.44;102256.66;5111412;28;19931;-45
2022/08/28 09:03:32;;;;;;;;;;;;;;;27.80;42.80;102253.06;5111921;28;19923;-41
2022/08/28 09:06:02;;;;;;;;;;;;;;;27.36;43.11;102252.66;5111485;28;19924;-34
2022/08/28 09:08:31;;;;;;;;;;;;;;;26.90;45.09;102258.28;5111085;28;19923;-40
2022/08/28 09:11:02;;;;;;;;;;;;;;;26.85;46.50;102254.88;5111280;28;19923;-38
2022/08/28 09:13:33;;;;;;;;;;;;;;;27.17;46.09;102255.56;5108717;28;20015;-32
2022/08/28 09:16:05;;;;;;;;;;;;;;;27.37;44.29;102254.31;5111980;28;19923;-36
2022/08/28 09:18:35;;;;;;;;;;;;;;;27.56;44.91;102250.56;5110617;28;19923;-38
2022/08/28 09:21:05;;;;;;;;;;;;;;;27.58;44.69;102249.00;5111909;28;20288;-36
2022/08/28 09:23:33;;;;;;;;;;;;;;;27.50;44.12;102247.19;5112205;28;20308;-40
2022/08/28 09:26:02;;;;;;;;;;;;;;;27.35;44.00;102256.75;5110777;28;20022;-35
2022/08/28 09:28:30;;;;;;;;;;;;;;;27.19;45.60;102259.69;5112131;28;19923;-36
2022/08/28 09:31:00;;;;;;;;;;;;;;;27.01;45.95;102258.50;5110826;28;19959;-34
2022/08/28 09:33:30;;;;;;;;;;;;;;;26.87;45.31;102264.75;5110719;28;19934;-35
2022/08/28 09:36:19;;;;;;;;;;;;;;;26.81;46.10;102266.25;5112087;28;19930;-38
2022/08/28 09:39:02;;;;;;;;;;;;;;;26.92;46.23;102261.59;5112118;28;19928;-37
2022/08/28 09:44:14;;;;;;;;;;;;;;;27.78;45.08;102261.22;5112353;28;19923;-33
2022/08/28 09:46:46;;;;;;;;;;;;;;;27.94;43.84;102266.84;5111621;28;19928;-36
2022/08/28 09:49:14;;;;;;;;;;;;;;;28.13;44.01;102267.56;5111861;28;20321;-35
2022/08/28 09:51:42;;;;;;;;;;;;;;;28.29;42.91;102261.69;5112077;28;19928;-37
2022/08/28 09:54:15;;;;;;;;;;;;;;;28.23;42.51;102271.84;5111610;28;19924;-36
2022/08/28 09:56:44;;;;;;;;;;;;;;;28.02;42.46;102272.28;5111875;28;19932;-35
2022/08/28 09:59:13;;;;;;;;;;;;;;;27.77;42.61;102263.28;5111961;28;19923;-35
2022/08/28 10:01:51;;;;;;;;;;;;;;;27.54;44.11;102268.16;5111013;28;19927;-37
2022/08/28 10:04:27;;;;;;;;;;;;;;;27.15;42.34;102264.53;5112336;28;19931;-34
2022/08/28 10:06:57;;;;;;;;;;;;;;;26.74;43.62;102275.53;5109514;28;19954;-35
2022/08/28 10:09:28;;;;;;;;;;;;;;;26.55;45.84;102268.97;5111083;28;19924;-38
2022/08/28 10:11:59;;;;;;;;;;;;;;;26.60;46.19;102268.63;5111456;28;19969;-37
2022/08/28 10:14:37;;;;;;;;;;;;;;;26.66;46.37;102272.88;5111024;28;20381;-40
2022/08/28 10:17:12;;;;;;;;;;;;;;;26.60;45.46;102272.34;5111326;28;19927;-42
2022/08/28 10:19:45;;;;;;;;;;;;;;;26.61;44.49;102273.16;5111905;28;20303;-36
2022/08/28 10:22:21;;;;;;;;;;;;;;;26.88;45.49;102257.81;5110820;28;19930;-39
2022/08/28 10:24:56;;;;;;;;;;;;;;;27.18;44.24;102265.81;5111800;28;19924;-40
2022/08/28 10:27:31;;;;;;;;;;;;;;;27.32;43.97;102264.06;5116116;28;20034;-39
2022/08/28 10:30:03;;;;;;;;;;;;;;;27.30;43.11;102268.50;5113931;28;19924;-36
2022/08/28 10:32:47;;;;;;;;;;;;;;;27.40;42.67;102265.00;5115085;28;20093;-31
2022/08/28 10:35:17;;;;;;;;;;;;;;;27.69;42.85;102261.50;5115904;28;20372;-44
2022/08/28 10:37:51;;;;;;;;;;;;;;;28.08;41.94;102259.28;5115185;28;19926;-33
2022/08/28 10:40:24;;;;;;;;;;;;;;;28.45;39.79;102268.06;5116332;28;19934;-36
2022/08/28 10:42:56;;;;;;;;;;;;;;;28.86;40.58;102262.50;5115109;28;19927;-38
2022/08/28 10:45:25;;;;;;;;;;;;;;;29.21;39.05;102261.28;5115346;28;20600;-35
2022/08/28 10:47:56;;;;;;;;;;;;;;;29.22;37.87;102269.50;5115554;28;20048;-37
2022/08/28 10:50:26;;;;;;;;;;;;;;;28.88;38.15;102265.81;5104050;28;19927;-38
2022/08/28 10:52:57;;;;;;;;;;;;;;;28.38;39.31;102262.22;5115108;28;20378;-38
2022/08/28 10:55:31;;;;;;;;;;;;;;;27.90;39.83;102271.69;5115677;28;19935;-36
2022/08/28 10:58:01;;;;;;;;;;;;;;;27.63;41.68;102265.06;5114877;28;19932;-38
2022/08/28 11:00:29;;;;;;;;;;;;;;;27.78;41.31;102264.91;5115181;28;19927;-37
2022/08/28 11:02:59;;;;;;;;;;;;;;;28.07;39.76;102265.41;5115197;28;19923;-41
2022/08/28 11:05:29;;;;;;;;;;;;;;;28.14;40.19;102265.53;5114286;28;19923;-37
2022/08/28 11:07:58;;;;;;;;;;;;;;;28.24;39.87;102273.50;5115120;28;20027;-37
2022/08/28 11:10:41;;;;;;;;;;;;;;;28.32;40.83;102272.41;5114200;28;20031;-39
2022/08/28 11:13:11;;;;;;;;;;;;;;;28.13;41.26;102270.44;5110836;28;20380;-33
2022/08/28 11:15:49;;;;;;;;;;;;;;;27.91;41.61;102279.09;5113996;28;19970;-38
2022/08/28 11:18:36;;;;;;;;;;;;;;;27.66;42.04;102279.47;5112795;28;19924;-41
2022/08/28 11:21:09;;;;;;;;;;;;;;;27.40;43.08;102276.47;5110864;28;20312;-40
2022/08/28 11:23:42;;;;;;;;;;;;;;;27.21;43.83;102280.22;5114124;28;20010;-37
2022/08/28 11:26:12;;;;;;;;;;;;;;;27.05;43.59;102286.03;5113449;28;19938;-36
2022/08/28 11:28:44;;;;;;;;;;;;;;;26.90;43.85;102281.19;5114108;28;19982;-34
2022/08/28 11:31:32;;;;;;;;;;;;;;;27.00;43.46;102283.47;5114383;28;19927;-40
2022/08/28 11:34:01;;;;;;;;;;;;;;;27.01;43.40;102285.13;5114099;28;20023;-42
2022/08/28 11:36:47;;;;;;;;;;;;;;;27.11;44.12;102280.84;5114378;28;19930;-38
2022/08/28 11:39:19;;;;;;;;;;;;;;;27.16;43.13;102288.31;5103168;28;19934;-39
2022/08/28 11:42:06;;;;;;;;;;;;;;;27.06;43.54;102286.88;5114474;28;20265;-38
2022/08/28 11:44:42;;;;;;;;;;;;;;;26.83;43.74;102283.06;5104874;28;19924;-36
2022/08/28 11:47:28;;;;;;;;;;;;;;;26.69;43.59;102292.19;5114122;28;19924;-36
2022/08/28 11:50:02;;;;;;;;;;;;;;;26.49;44.19;102290.47;5114197;28;19924;-41
2022/08/28 11:52:36;;;;;;;;;;;;;;;26.45;44.79;102289.56;5103601;28;20402;-35
2022/08/28 11:55:10;;;;;;;;;;;;;;;26.40;45.57;102290.69;5113831;28;19923;-38
2022/08/28 11:57:48;;;;;;;;;;;;;;;26.32;44.95;102288.88;5103081;28;20380;-31
2022/08/28 12:00:23;;;;;;;;;;;;;;;26.09;44.31;102288.69;5113794;28;19946;-32
2022/08/28 12:02:59;;;;;;;;;;;;;;;25.79;44.93;102281.75;5103287;28;19943;-34
2022/08/28 12:05:39;;;;;;;;;;;;;;;25.51;45.27;102285.53;5114323;28;20353;-29
2022/08/28 12:08:10;;;;;;;;;;;;;;;25.31;46.46;102283.72;5103882;28;20380;-33
2022/08/28 12:10:56;;;;;;;;;;;;;;;25.27;47.12;102288.50;5113763;28;19924;-36
2022/08/28 12:13:43;;;;;;;;;;;;;;;25.34;46.22;102289.56;5104947;28;19924;-33
2022/08/28 12:16:12;;;;;;;;;;;;;;;25.48;45.86;102289.09;5112919;28;19946;-36
2022/08/28 12:19:00;;;;;;;;;;;;;;;25.56;44.95;102276.69;5113227;28;20015;-34
2022/08/28 12:21:28;;;;;;;;;;;;;;;25.56;45.42;102276.69;5113476;28;19934;-33
2022/08/28 12:23:58;;;;;;;;;;;;;;;25.55;45.66;102282.75;5112602;28;19931;-35
2022/08/28 12:26:34;;;;;;;;;;;;;;;25.43;45.91;102275.06;5113525;28;19923;-35
2022/08/28 12:29:03;;;;;;;;;;;;;;;25.24;46.75;102278.63;5112338;28;20408;-30
2022/08/28 12:34:34;;;;;;;;;;;;;;;25.61;47.86;102279.25;5112816;28;19927;-38
2022/08/28 12:37:04;;;;;;;;;;;;;;;25.89;46.08;102275.50;5112927;28;19931;-34
2022/08/28 12:39:33;;;;;;;;;;;;;;;26.02;45.48;102277.06;5113424;28;20018;-37
2022/08/28 12:42:01;;;;;;;;;;;;;;;26.04;46.18;102277.50;5113324;28;19939;-37
2022/08/28 12:44:30;;;;;;;;;;;;;;;25.96;46.24;102276.53;5112892;28;19924;-38
2022/08/28 12:47:00;;;;;;;;;;;;;;;25.86;46.48;102279.94;5113457;28;19931;-30
2022/08/28 12:49:31;;;;;;;;;;;;;;;25.93;46.94;102276.44;5112016;28;19969;-30
2022/08/28 12:52:12;;;;;;;;;;;;;;;25.93;45.99;102274.41;5113120;28;20288;-30
2022/08/28 12:54:44;;;;;;;;;;;;;;;25.90;45.86;102271.44;5103343;28;19934;-34
2022/08/28 12:57:12;;;;;;;;;;;;;;;25.84;45.88;102281.50;5113057;28;19931;-31